sensor_id;sensor_type;location;lat;lon;timestamp;pressure;altitude;pressure_sealevel;temperature;humidity
27805;BME280;15183;51.350;11.102;2023-07-13T00:01:49;99831.09;;;21.82;41.49
27805;BME280;15183;51.350;11.102;2023-07-13T00:04:17;99824.69;;;21.78;41.66
27805;BME280;15183;51.350;11.102;2023-07-13T00:06:46;99828.72;;;21.67;42.25
27805;BME280;15183;51.350;11.102;2023-07-13T00:09:14;99837.56;;;21.53;42.05
27805;BME280;15183;51.350;11.102;2023-07-13T00:11:41;99828.06;;;21.42;42.36
27805;BME280;15183;51.350;11.102;2023-07-13T00:14:08;99828.56;;;21.44;42.46
27805;BME280;15183;51.350;11.102;2023-07-13T00:16:37;99819.78;;;21.38;42.84
27805;BME280;15183;51.350;11.102;2023-07-13T00:19:05;99819.50;;;21.40;42.63
27805;BME280;15183;51.350;11.102;2023-07-13T00:21:32;99824.28;;;21.43;42.70
27805;BME280;15183;51.350;11.102;2023-07-13T00:23:58;99823.28;;;21.39;42.74
27805;BME280;15183;51.350;11.102;2023-07-13T00:26:26;99840.84;;;21.36;42.37
27805;BME280;15183;51.350;11.102;2023-07-13T00:28:53;99835.84;;;21.30;42.46
27805;BME280;15183;51.350;11.102;2023-07-13T00:31:19;99840.53;;;21.24;43.26
27805;BME280;15183;51.350;11.102;2023-07-13T00:33:45;99843.91;;;21.16;42.90
27805;BME280;15183;51.350;11.102;2023-07-13T00:36:12;99832.38;;;20.96;43.21
27805;BME280;15183;51.350;11.102;2023-07-13T00:38:39;99840.38;;;20.87;43.35
27805;BME280;15183;51.350;11.102;2023-07-13T00:41:05;99845.53;;;20.84;43.70
27805;BME280;15183;51.350;11.102;2023-07-13T00:43:32;99850.09;;;20.83;43.98
27805;BME280;15183;51.350;11.102;2023-07-13T00:48:34;99874.31;;;21.02;43.96
27805;BME280;15183;51.350;11.102;2023-07-13T00:51:03;99872.66;;;21.20;43.82
27805;BME280;15183;51.350;11.102;2023-07-13T00:53:31;99866.38;;;21.25;43.24
27805;BME280;15183;51.350;11.102;2023-07-13T00:55:59;99872.19;;;21.32;43.03
27805;BME280;15183;51.350;11.102;2023-07-13T00:58:26;99872.59;;;21.25;43.64
27805;BME280;15183;51.350;11.102;2023-07-13T01:00:54;99867.56;;;21.19;44.12
27805;BME280;15183;51.350;11.102;2023-07-13T01:03:20;99862.97;;;21.19;43.57
27805;BME280;15183;51.350;11.102;2023-07-13T01:05:50;99868.28;;;21.38;43.32
27805;BME280;15183;51.350;11.102;2023-07-13T01:08:17;99870.03;;;21.62;43.39
27805;BME280;15183;51.350;11.102;2023-07-13T01:10:56;99860.88;;;21.77;42.84
27805;BME280;15183;51.350;11.102;2023-07-13T01:13:22;99862.06;;;21.85;42.94
27805;BME280;15183;51.350;11.102;2023-07-13T01:15:51;99876.53;;;22.03;43.15
27805;BME280;15183;51.350;11.102;2023-07-13T01:18:26;99875.81;;;22.11;42.68
27805;BME280;15183;51.350;11.102;2023-07-13T01:21:02;99874.41;;;22.14;42.99
27805;BME280;15183;51.350;11.102;2023-07-13T01:23:30;99873.63;;;22.14;42.69
27805;BME280;15183;51.350;11.102;2023-07-13T01:25:58;99863.94;;;22.12;42.84
27805;BME280;15183;51.350;11.102;2023-07-13T01:28:26;99857.44;;;22.14;43.13
27805;BME280;15183;51.350;11.102;2023-07-13T01:30:58;99851.03;;;22.09;43.39
27805;BME280;15183;51.350;11.102;2023-07-13T01:33:26;99837.97;;;22.03;43.23
27805;BME280;15183;51.350;11.102;2023-07-13T01:35:52;99852.16;;;21.94;43.46
27805;BME280;15183;51.350;11.102;2023-07-13T01:38:22;99857.28;;;21.82;43.59
27805;BME280;15183;51.350;11.102;2023-07-13T01:40:50;99862.97;;;21.80;43.16
27805;BME280;15183;51.350;11.102;2023-07-13T01:43:18;99862.56;;;21.73;43.79
27805;BME280;15183;51.350;11.102;2023-07-13T01:45:45;99861.25;;;21.71;43.33
27805;BME280;15183;51.350;11.102;2023-07-13T01:48:13;99870.34;;;21.75;43.20
27805;BME280;15183;51.350;11.102;2023-07-13T01:50:39;99871.38;;;21.79;43.44
27805;BME280;15183;51.350;11.102;2023-07-13T01:53:06;99862.47;;;21.78;43.14
27805;BME280;15183;51.350;11.102;2023-07-13T01:55:35;99859.16;;;21.81;43.45
27805;BME280;15183;51.350;11.102;2023-07-13T01:58:02;99847.00;;;21.70;43.48
27805;BME280;15183;51.350;11.102;2023-07-13T02:00:28;99848.25;;;21.59;43.42
27805;BME280;15183;51.350;11.102;2023-07-13T02:02:55;99846.25;;;21.50;43.73
27805;BME280;15183;51.350;11.102;2023-07-13T02:05:22;99845.84;;;21.43;43.71
27805;BME280;15183;51.350;11.102;2023-07-13T02:07:48;99848.25;;;21.45;44.40
27805;BME280;15183;51.350;11.102;2023-07-13T02:10:15;99851.22;;;21.43;44.19
27805;BME280;15183;51.350;11.102;2023-07-13T02:12:42;99838.47;;;21.35;44.14
27805;BME280;15183;51.350;11.102;2023-07-13T02:15:10;99838.56;;;21.30;44.57
27805;BME280;15183;51.350;11.102;2023-07-13T02:17:37;99852.72;;;21.35;44.14
27805;BME280;15183;51.350;11.102;2023-07-13T02:20:04;99864.22;;;21.41;44.63
27805;BME280;15183;51.350;11.102;2023-07-13T02:22:31;99861.41;;;21.46;44.64
27805;BME280;15183;51.350;11.102;2023-07-13T02:24:58;99854.16;;;21.47;43.92
27805;BME280;15183;51.350;11.102;2023-07-13T02:27:24;99857.25;;;21.54;43.88
27805;BME280;15183;51.350;11.102;2023-07-13T02:29:51;99860.66;;;21.60;44.00
27805;BME280;15183;51.350;11.102;2023-07-13T02:32:18;99858.97;;;21.64;44.05
27805;BME280;15183;51.350;11.102;2023-07-13T02:34:45;99851.06;;;21.67;43.61
27805;BME280;15183;51.350;11.102;2023-07-13T02:37:11;99848.88;;;21.69;43.40
27805;BME280;15183;51.350;11.102;2023-07-13T02:39:38;99848.28;;;21.73;43.26
27805;BME280;15183;51.350;11.102;2023-07-13T02:42:05;99847.00;;;21.70;43.98
27805;BME280;15183;51.350;11.102;2023-07-13T02:44:31;99841.78;;;21.60;43.59
27805;BME280;15183;51.350;11.102;2023-07-13T02:46:58;99855.03;;;21.56;44.06
27805;BME280;15183;51.350;11.102;2023-07-13T02:49:24;99861.81;;;21.53;44.24
27805;BME280;15183;51.350;11.102;2023-07-13T02:51:51;99866.22;;;21.49;44.05
27805;BME280;15183;51.350;11.102;2023-07-13T02:54:17;99865.22;;;21.45;44.25
27805;BME280;15183;51.350;11.102;2023-07-13T02:56:44;99872.41;;;21.50;44.31
27805;BME280;15183;51.350;11.102;2023-07-13T02:59:10;99872.19;;;21.46;44.02
27805;BME280;15183;51.350;11.102;2023-07-13T03:01:37;99871.69;;;21.44;44.60
27805;BME280;15183;51.350;11.102;2023-07-13T03:04:03;99873.91;;;21.42;44.60
27805;BME280;15183;51.350;11.102;2023-07-13T03:06:32;99885.19;;;21.44;44.38
27805;BME280;15183;51.350;11.102;2023-07-13T03:08:59;99861.31;;;21.37;44.41
27805;BME280;15183;51.350;11.102;2023-07-13T03:11:26;99884.00;;;21.50;44.83
27805;BME280;15183;51.350;11.102;2023-07-13T03:13:53;99882.00;;;21.56;44.43
27805;BME280;15183;51.350;11.102;2023-07-13T03:16:20;99880.09;;;21.57;44.97
27805;BME280;15183;51.350;11.102;2023-07-13T03:18:47;99884.03;;;21.64;44.46
27805;BME280;15183;51.350;11.102;2023-07-13T03:21:14;99885.63;;;21.65;44.70
27805;BME280;15183;51.350;11.102;2023-07-13T03:23:41;99883.00;;;21.60;44.75
27805;BME280;15183;51.350;11.102;2023-07-13T03:26:15;99891.22;;;21.69;44.73
27805;BME280;15183;51.350;11.102;2023-07-13T03:28:42;99886.94;;;21.68;44.83
27805;BME280;15183;51.350;11.102;2023-07-13T03:31:18;99896.41;;;21.65;44.56
27805;BME280;15183;51.350;11.102;2023-07-13T03:33:45;99900.94;;;21.70;44.46
27805;BME280;15183;51.350;11.102;2023-07-13T03:36:22;99898.22;;;21.70;45.05
27805;BME280;15183;51.350;11.102;2023-07-13T03:38:58;99896.97;;;21.62;45.06
27805;BME280;15183;51.350;11.102;2023-07-13T03:41:25;99885.97;;;21.59;44.81
27805;BME280;15183;51.350;11.102;2023-07-13T03:43:52;99899.00;;;21.71;44.67
27805;BME280;15183;51.350;11.102;2023-07-13T03:46:19;99904.91;;;21.73;44.84
27805;BME280;15183;51.350;11.102;2023-07-13T03:48:47;99905.34;;;21.80;45.18
27805;BME280;15183;51.350;11.102;2023-07-13T03:51:15;99888.06;;;21.81;44.49
27805;BME280;15183;51.350;11.102;2023-07-13T03:53:45;99903.53;;;22.03;44.10
27805;BME280;15183;51.350;11.102;2023-07-13T03:56:13;99909.09;;;22.07;44.63
27805;BME280;15183;51.350;11.102;2023-07-13T03:58:42;99912.78;;;22.11;44.31
27805;BME280;15183;51.350;11.102;2023-07-13T04:01:11;99918.19;;;22.11;44.93
27805;BME280;15183;51.350;11.102;2023-07-13T04:03:37;99920.38;;;22.09;44.39
27805;BME280;15183;51.350;11.102;2023-07-13T04:06:07;99918.19;;;22.11;45.08
27805;BME280;15183;51.350;11.102;2023-07-13T04:08:36;99919.19;;;22.15;44.52
27805;BME280;15183;51.350;11.102;2023-07-13T04:11:04;99921.31;;;22.18;45.16
27805;BME280;15183;51.350;11.102;2023-07-13T04:13:31;99915.09;;;22.18;44.95
27805;BME280;15183;51.350;11.102;2023-07-13T04:15:57;99928.47;;;22.23;45.38
27805;BME280;15183;51.350;11.102;2023-07-13T04:18:24;99922.28;;;22.22;45.09
27805;BME280;15183;51.350;11.102;2023-07-13T04:20:51;99931.56;;;22.30;44.92
27805;BME280;15183;51.350;11.102;2023-07-13T04:23:18;99922.41;;;22.17;45.41
27805;BME280;15183;51.350;11.102;2023-07-13T04:25:46;99930.69;;;22.21;45.09
27805;BME280;15183;51.350;11.102;2023-07-13T04:28:12;99920.38;;;22.23;45.59
27805;BME280;15183;51.350;11.102;2023-07-13T04:30:39;99934.47;;;22.34;45.03
27805;BME280;15183;51.350;11.102;2023-07-13T04:33:05;99914.25;;;22.31;45.16
27805;BME280;15183;51.350;11.102;2023-07-13T04:35:32;99921.97;;;22.52;45.40
27805;BME280;15183;51.350;11.102;2023-07-13T04:37:58;99926.22;;;22.67;45.33
27805;BME280;15183;51.350;11.102;2023-07-13T04:40:26;99928.19;;;22.75;44.78
27805;BME280;15183;51.350;11.102;2023-07-13T04:42:53;99923.38;;;22.86;45.35
27805;BME280;15183;51.350;11.102;2023-07-13T04:45:19;99919.78;;;22.99;44.79
27805;BME280;15183;51.350;11.102;2023-07-13T04:47:45;99921.94;;;23.11;44.69
27805;BME280;15183;51.350;11.102;2023-07-13T04:50:13;99927.66;;;23.33;44.46
27805;BME280;15183;51.350;11.102;2023-07-13T04:52:47;99921.13;;;23.56;44.33
27805;BME280;15183;51.350;11.102;2023-07-13T04:55:13;99921.38;;;23.78;44.10
27805;BME280;15183;51.350;11.102;2023-07-13T04:57:40;99926.19;;;23.98;44.34
27805;BME280;15183;51.350;11.102;2023-07-13T05:00:07;99921.84;;;24.20;43.73
27805;BME280;15183;51.350;11.102;2023-07-13T05:02:34;99926.78;;;24.36;43.82
27805;BME280;15183;51.350;11.102;2023-07-13T05:05:02;99928.91;;;24.56;43.32
27805;BME280;15183;51.350;11.102;2023-07-13T05:07:30;99927.47;;;24.68;43.16
27805;BME280;15183;51.350;11.102;2023-07-13T05:09:56;99931.81;;;24.87;43.10
27805;BME280;15183;51.350;11.102;2023-07-13T05:12:22;99926.81;;;25.06;42.79
27805;BME280;15183;51.350;11.102;2023-07-13T05:14:49;99933.47;;;25.26;43.32
27805;BME280;15183;51.350;11.102;2023-07-13T05:17:15;99926.75;;;25.50;43.10
27805;BME280;15183;51.350;11.102;2023-07-13T05:19:42;99926.00;;;25.80;42.28
27805;BME280;15183;51.350;11.102;2023-07-13T05:22:09;99927.75;;;26.14;42.20
27805;BME280;15183;51.350;11.102;2023-07-13T05:24:36;99932.09;;;26.37;41.43
27805;BME280;15183;51.350;11.102;2023-07-13T05:27:02;99934.94;;;26.62;41.68
27805;BME280;15183;51.350;11.102;2023-07-13T05:29:29;99928.06;;;26.85;41.21
27805;BME280;15183;51.350;11.102;2023-07-13T05:31:55;99936.78;;;27.12;40.72
27805;BME280;15183;51.350;11.102;2023-07-13T05:34:22;99933.78;;;27.39;40.31
27805;BME280;15183;51.350;11.102;2023-07-13T05:36:48;99938.72;;;27.58;40.64
27805;BME280;15183;51.350;11.102;2023-07-13T05:39:16;99944.50;;;27.81;40.24
27805;BME280;15183;51.350;11.102;2023-07-13T05:41:42;99953.59;;;27.98;39.31
27805;BME280;15183;51.350;11.102;2023-07-13T05:44:09;99946.44;;;28.18;39.48
27805;BME280;15183;51.350;11.102;2023-07-13T05:46:35;99943.72;;;28.30;39.04
27805;BME280;15183;51.350;11.102;2023-07-13T05:49:01;99947.75;;;28.49;38.07
27805;BME280;15183;51.350;11.102;2023-07-13T05:51:29;99945.22;;;28.56;38.32
27805;BME280;15183;51.350;11.102;2023-07-13T05:53:56;99952.59;;;28.68;38.18
27805;BME280;15183;51.350;11.102;2023-07-13T05:56:22;99961.91;;;28.80;37.83
27805;BME280;15183;51.350;11.102;2023-07-13T05:58:49;99949.59;;;28.86;37.60
27805;BME280;15183;51.350;11.102;2023-07-13T06:01:16;99946.56;;;29.03;37.09
27805;BME280;15183;51.350;11.102;2023-07-13T06:03:42;99963.53;;;29.25;37.02
27805;BME280;15183;51.350;11.102;2023-07-13T06:06:10;99950.88;;;29.49;36.94
27805;BME280;15183;51.350;11.102;2023-07-13T06:08:36;99946.13;;;29.78;36.69
27805;BME280;15183;51.350;11.102;2023-07-13T06:11:25;99932.72;;;30.05;36.55
27805;BME280;15183;51.350;11.102;2023-07-13T06:13:52;99946.25;;;30.53;36.13
27805;BME280;15183;51.350;11.102;2023-07-13T06:16:18;99943.75;;;30.84;35.10
27805;BME280;15183;51.350;11.102;2023-07-13T06:18:45;99948.34;;;30.99;34.77
27805;BME280;15183;51.350;11.102;2023-07-13T06:21:18;99949.75;;;31.13;35.05
27805;BME280;15183;51.350;11.102;2023-07-13T06:23:47;99920.75;;;31.08;34.29
27805;BME280;15183;51.350;11.102;2023-07-13T06:26:18;99953.75;;;31.39;34.28
27805;BME280;15183;51.350;11.102;2023-07-13T06:28:45;99946.25;;;31.36;34.04
27805;BME280;15183;51.350;11.102;2023-07-13T06:31:13;99958.06;;;31.40;33.68
27805;BME280;15183;51.350;11.102;2023-07-13T06:33:40;99957.19;;;31.32;33.90
27805;BME280;15183;51.350;11.102;2023-07-13T06:36:07;99958.38;;;31.35;33.63
27805;BME280;15183;51.350;11.102;2023-07-13T06:38:34;99954.13;;;31.37;33.64
27805;BME280;15183;51.350;11.102;2023-07-13T06:41:01;99952.25;;;31.41;33.44
27805;BME280;15183;51.350;11.102;2023-07-13T06:43:27;99959.72;;;31.44;32.71
27805;BME280;15183;51.350;11.102;2023-07-13T06:45:56;99954.13;;;31.37;32.46
27805;BME280;15183;51.350;11.102;2023-07-13T06:48:22;99947.22;;;31.24;32.49
27805;BME280;15183;51.350;11.102;2023-07-13T06:50:50;99952.72;;;31.04;32.48
27805;BME280;15183;51.350;11.102;2023-07-13T06:53:18;99963.16;;;30.98;32.70
27805;BME280;15183;51.350;11.102;2023-07-13T06:55:46;99965.91;;;30.98;32.38
27805;BME280;15183;51.350;11.102;2023-07-13T06:58:13;99953.25;;;30.90;31.96
27805;BME280;15183;51.350;11.102;2023-07-13T07:00:39;99965.91;;;30.98;32.00
27805;BME280;15183;51.350;11.102;2023-07-13T07:03:06;99961.78;;;31.08;32.12
27805;BME280;15183;51.350;11.102;2023-07-13T07:05:32;99963.50;;;31.36;32.10
27805;BME280;15183;51.350;11.102;2023-07-13T07:07:59;99953.38;;;31.64;31.75
27805;BME280;15183;51.350;11.102;2023-07-13T07:10:31;99960.44;;;32.15;31.68
27805;BME280;15183;51.350;11.102;2023-07-13T07:12:57;99958.25;;;32.55;31.21
27805;BME280;15183;51.350;11.102;2023-07-13T07:15:24;99966.09;;;32.87;30.36
27805;BME280;15183;51.350;11.102;2023-07-13T07:17:51;99970.16;;;32.66;30.09
27805;BME280;15183;51.350;11.102;2023-07-13T07:20:17;99972.31;;;32.23;29.90
27805;BME280;15183;51.350;11.102;2023-07-13T07:22:44;99964.22;;;31.80;30.19
27805;BME280;15183;51.350;11.102;2023-07-13T07:25:10;99968.56;;;31.57;30.77
27805;BME280;15183;51.350;11.102;2023-07-13T07:27:37;99964.69;;;31.62;30.45
27805;BME280;15183;51.350;11.102;2023-07-13T07:30:04;99978.47;;;31.89;30.66
27805;BME280;15183;51.350;11.102;2023-07-13T07:32:31;99970.31;;;31.93;30.52
27805;BME280;15183;51.350;11.102;2023-07-13T07:34:58;99973.72;;;31.62;30.34
27805;BME280;15183;51.350;11.102;2023-07-13T07:37:24;99967.81;;;31.17;30.08
27805;BME280;15183;51.350;11.102;2023-07-13T07:39:51;99965.72;;;30.68;30.25
27805;BME280;15183;51.350;11.102;2023-07-13T07:42:17;99975.06;;;30.67;30.59
27805;BME280;15183;51.350;11.102;2023-07-13T07:44:44;99979.31;;;30.84;30.68
27805;BME280;15183;51.350;11.102;2023-07-13T07:47:10;99976.19;;;31.25;30.56
27805;BME280;15183;51.350;11.102;2023-07-13T07:49:37;99973.91;;;31.50;30.38
27805;BME280;15183;51.350;11.102;2023-07-13T07:52:04;99971.09;;;31.70;30.52
27805;BME280;15183;51.350;11.102;2023-07-13T07:54:31;99982.44;;;31.92;30.61
27805;BME280;15183;51.350;11.102;2023-07-13T07:56:57;99976.63;;;31.97;30.29
27805;BME280;15183;51.350;11.102;2023-07-13T07:59:24;99986.50;;;31.78;30.18
27805;BME280;15183;51.350;11.102;2023-07-13T08:01:50;99982.47;;;31.48;29.77
27805;BME280;15183;51.350;11.102;2023-07-13T08:04:17;99978.44;;;31.19;30.33
27805;BME280;15183;51.350;11.102;2023-07-13T08:06:43;99984.25;;;31.17;30.23
27805;BME280;15183;51.350;11.102;2023-07-13T08:09:09;99985.13;;;31.22;30.37
27805;BME280;15183;51.350;11.102;2023-07-13T08:11:36;99987.53;;;31.23;30.92
27805;BME280;15183;51.350;11.102;2023-07-13T08:14:02;99982.47;;;31.25;30.27
27805;BME280;15183;51.350;11.102;2023-07-13T08:16:29;99998.97;;;31.09;30.55
27805;BME280;15183;51.350;11.102;2023-07-13T08:18:56;99989.03;;;31.01;30.43
27805;BME280;15183;51.350;11.102;2023-07-13T08:21:22;99996.44;;;31.00;31.17
27805;BME280;15183;51.350;11.102;2023-07-13T08:23:49;99987.78;;;31.18;30.85
27805;BME280;15183;51.350;11.102;2023-07-13T08:26:15;99984.38;;;31.44;30.96
27805;BME280;15183;51.350;11.102;2023-07-13T08:28:42;99979.44;;;31.77;30.68
27805;BME280;15183;51.350;11.102;2023-07-13T08:31:08;99987.94;;;31.95;30.25
27805;BME280;15183;51.350;11.102;2023-07-13T08:33:36;99979.84;;;31.75;29.63
27805;BME280;15183;51.350;11.102;2023-07-13T08:36:05;99969.09;;;31.43;29.54
27805;BME280;15183;51.350;11.102;2023-07-13T08:38:32;99989.66;;;31.14;29.67
27805;BME280;15183;51.350;11.102;2023-07-13T08:40:58;99992.78;;;30.93;29.90
27805;BME280;15183;51.350;11.102;2023-07-13T08:43:36;99987.38;;;30.77;29.44
27805;BME280;15183;51.350;11.102;2023-07-13T08:46:28;99987.81;;;30.79;29.98
27805;BME280;15183;51.350;11.102;2023-07-13T08:49:03;99990.59;;;30.82;29.19
27805;BME280;15183;51.350;11.102;2023-07-13T08:52:00;99975.72;;;30.80;28.70
27805;BME280;15183;51.350;11.102;2023-07-13T08:54:37;99978.88;;;30.82;28.79
27805;BME280;15183;51.350;11.102;2023-07-13T08:57:18;99982.09;;;30.87;28.00
27805;BME280;15183;51.350;11.102;2023-07-13T08:59:46;99976.28;;;30.89;28.10
27805;BME280;15183;51.350;11.102;2023-07-13T09:02:34;99984.06;;;31.07;28.18
27805;BME280;15183;51.350;11.102;2023-07-13T09:05:29;99963.81;;;31.31;28.12
27805;BME280;15183;51.350;11.102;2023-07-13T09:10:48;99974.56;;;31.90;27.42
27805;BME280;15183;51.350;11.102;2023-07-13T09:16:39;99962.22;;;32.30;27.38
27805;BME280;15183;51.350;11.102;2023-07-13T09:19:16;99987.63;;;32.54;26.06
27805;BME280;15183;51.350;11.102;2023-07-13T09:21:45;99975.44;;;32.52;26.16
27805;BME280;15183;51.350;11.102;2023-07-13T09:24:51;99988.16;;;32.33;26.05
27805;BME280;15183;51.350;11.102;2023-07-13T09:27:25;99976.41;;;32.09;25.78
27805;BME280;15183;51.350;11.102;2023-07-13T09:32:40;99985.91;;;32.15;26.37
27805;BME280;15183;51.350;11.102;2023-07-13T09:35:17;99985.69;;;32.28;25.91
27805;BME280;15183;51.350;11.102;2023-07-13T09:37:45;99979.69;;;32.45;25.75
27805;BME280;15183;51.350;11.102;2023-07-13T09:40:28;99992.19;;;32.73;26.00
27805;BME280;15183;51.350;11.102;2023-07-13T09:42:58;99986.41;;;32.82;25.57
27805;BME280;15183;51.350;11.102;2023-07-13T09:45:32;99993.09;;;32.85;25.52
27805;BME280;15183;51.350;11.102;2023-07-13T09:48:06;99988.28;;;32.74;24.94
27805;BME280;15183;51.350;11.102;2023-07-13T09:50:32;99992.47;;;32.65;24.96
27805;BME280;15183;51.350;11.102;2023-07-13T09:53:01;99995.41;;;32.48;25.33
27805;BME280;15183;51.350;11.102;2023-07-13T09:55:36;99989.41;;;32.39;25.26
27805;BME280;15183;51.350;11.102;2023-07-13T09:58:18;99987.91;;;32.45;25.23
27805;BME280;15183;51.350;11.102;2023-07-13T10:01:03;99984.47;;;32.52;25.45
27805;BME280;15183;51.350;11.102;2023-07-13T10:03:34;99975.88;;;32.54;25.18
27805;BME280;15183;51.350;11.102;2023-07-13T10:06:18;100000.09;;;32.79;25.24
27805;BME280;15183;51.350;11.102;2023-07-13T10:08:46;99998.06;;;33.06;25.58
27805;BME280;15183;51.350;11.102;2023-07-13T10:11:29;99988.38;;;33.16;25.17
27805;BME280;15183;51.350;11.102;2023-07-13T10:14:02;99972.50;;;32.98;25.13
27805;BME280;15183;51.350;11.102;2023-07-13T10:16:31;99997.75;;;32.81;24.69
27805;BME280;15183;51.350;11.102;2023-07-13T10:19:05;100005.94;;;32.46;24.36
27805;BME280;15183;51.350;11.102;2023-07-13T10:21:50;99999.19;;;32.13;24.63
27805;BME280;15183;51.350;11.102;2023-07-13T10:24:35;100000.06;;;31.94;25.08
27805;BME280;15183;51.350;11.102;2023-07-13T10:27:18;100003.50;;;31.87;25.48
27805;BME280;15183;51.350;11.102;2023-07-13T10:29:51;99977.31;;;31.67;25.56
27805;BME280;15183;51.350;11.102;2023-07-13T10:32:22;99998.06;;;31.68;24.98
27805;BME280;15183;51.350;11.102;2023-07-13T10:34:50;99992.28;;;31.73;25.14
27805;BME280;15183;51.350;11.102;2023-07-13T10:37:29;100004.34;;;31.92;24.89
27805;BME280;15183;51.350;11.102;2023-07-13T10:39:59;100010.06;;;32.06;24.74
27805;BME280;15183;51.350;11.102;2023-07-13T10:42:32;100019.59;;;32.16;24.81
27805;BME280;15183;51.350;11.102;2023-07-13T10:44:59;100005.94;;;32.19;25.01
27805;BME280;15183;51.350;11.102;2023-07-13T10:47:26;99983.28;;;32.23;24.70
27805;BME280;15183;51.350;11.102;2023-07-13T10:49:56;99996.78;;;32.35;24.48
27805;BME280;15183;51.350;11.102;2023-07-13T10:56:02;100005.13;;;32.42;24.52
27805;BME280;15183;51.350;11.102;2023-07-13T10:58:41;100009.19;;;32.56;24.71
27805;BME280;15183;51.350;11.102;2023-07-13T11:01:16;100010.59;;;32.42;24.74
27805;BME280;15183;51.350;11.102;2023-07-13T11:06:16;100023.22;;;31.97;24.69
27805;BME280;15183;51.350;11.102;2023-07-13T11:19:23;100018.06;;;31.25;25.27
27805;BME280;15183;51.350;11.102;2023-07-13T11:30:38;100015.31;;;31.45;25.72
27805;BME280;15183;51.350;11.102;2023-07-13T11:36:12;100001.66;;;31.72;25.11
27805;BME280;15183;51.350;11.102;2023-07-13T11:41:34;99970.72;;;32.22;25.35
27805;BME280;15183;51.350;11.102;2023-07-13T11:44:18;99998.09;;;32.75;24.91
27805;BME280;15183;51.350;11.102;2023-07-13T11:46:49;99999.66;;;32.76;24.71
27805;BME280;15183;51.350;11.102;2023-07-13T11:49:20;99990.75;;;32.53;24.11
27805;BME280;15183;51.350;11.102;2023-07-13T11:51:47;99988.50;;;32.31;24.51
27805;BME280;15183;51.350;11.102;2023-07-13T11:54:33;99992.13;;;32.12;24.42
27805;BME280;15183;51.350;11.102;2023-07-13T11:57:49;100004.47;;;31.99;24.24
27805;BME280;15183;51.350;11.102;2023-07-13T11:59:51;99994.47;;;31.64;24.42
27805;BME280;15183;51.350;11.102;2023-07-13T12:02:36;99990.94;;;31.40;24.79
27805;BME280;15183;51.350;11.102;2023-07-13T12:05:05;99999.16;;;31.40;24.63
27805;BME280;15183;51.350;11.102;2023-07-13T12:07:33;99987.59;;;31.50;24.67
27805;BME280;15183;51.350;11.102;2023-07-13T12:12:56;99996.97;;;31.72;24.94
27805;BME280;15183;51.350;11.102;2023-07-13T12:15:34;99995.28;;;31.87;25.14
27805;BME280;15183;51.350;11.102;2023-07-13T12:18:03;100007.41;;;32.13;24.56
27805;BME280;15183;51.350;11.102;2023-07-13T12:20:38;99998.66;;;32.31;24.78
27805;BME280;15183;51.350;11.102;2023-07-13T12:23:33;99996.78;;;32.35;24.24
27805;BME280;15183;51.350;11.102;2023-07-13T12:26:03;99987.63;;;32.27;24.51
27805;BME280;15183;51.350;11.102;2023-07-13T12:28:37;99998.03;;;32.41;24.05
27805;BME280;15183;51.350;11.102;2023-07-13T12:31:07;99992.66;;;32.48;24.74
27805;BME280;15183;51.350;11.102;2023-07-13T12:33:34;99990.19;;;32.70;24.14
27805;BME280;15183;51.350;11.102;2023-07-13T12:36:03;100001.41;;;32.88;23.95
27805;BME280;15183;51.350;11.102;2023-07-13T12:38:32;100006.22;;;32.99;24.28
27805;BME280;15183;51.350;11.102;2023-07-13T12:41:01;99998.59;;;32.85;24.13
27805;BME280;15183;51.350;11.102;2023-07-13T12:43:34;99999.91;;;32.64;23.71
27805;BME280;15183;51.350;11.102;2023-07-13T12:46:14;99996.03;;;32.38;23.74
27805;BME280;15183;51.350;11.102;2023-07-13T12:48:43;100003.81;;;32.09;24.01
27805;BME280;15183;51.350;11.102;2023-07-13T12:51:13;99993.56;;;32.02;24.24
27805;BME280;15183;51.350;11.102;2023-07-13T12:53:50;99999.81;;;32.03;24.71
27805;BME280;15183;51.350;11.102;2023-07-13T12:56:26;99993.56;;;32.02;24.63
27805;BME280;15183;51.350;11.102;2023-07-13T12:59:01;99989.94;;;31.98;24.61
27805;BME280;15183;51.350;11.102;2023-07-13T13:01:29;99995.44;;;31.98;24.54
27805;BME280;15183;51.350;11.102;2023-07-13T13:04:02;99997.97;;;31.84;24.82
27805;BME280;15183;51.350;11.102;2023-07-13T13:06:35;99994.88;;;31.85;24.65
27805;BME280;15183;51.350;11.102;2023-07-13T13:09:03;99992.59;;;31.91;24.91
27805;BME280;15183;51.350;11.102;2023-07-13T13:11:31;100005.53;;;31.90;24.92
27805;BME280;15183;51.350;11.102;2023-07-13T13:13:58;99991.38;;;31.88;24.66
27805;BME280;15183;51.350;11.102;2023-07-13T13:16:48;99998.03;;;31.87;24.98
27805;BME280;15183;51.350;11.102;2023-07-13T13:19:25;99988.84;;;32.03;24.44
27805;BME280;15183;51.350;11.102;2023-07-13T13:21:55;99989.69;;;32.07;24.49
27805;BME280;15183;51.350;11.102;2023-07-13T13:24:26;99973.78;;;32.16;24.34
27805;BME280;15183;51.350;11.102;2023-07-13T13:26:54;100000.47;;;32.46;24.34
27805;BME280;15183;51.350;11.102;2023-07-13T13:29:24;99991.56;;;32.57;23.86
27805;BME280;15183;51.350;11.102;2023-07-13T13:31:52;99990.84;;;32.60;24.40
27805;BME280;15183;51.350;11.102;2023-07-13T13:34:22;100003.22;;;32.77;23.86
27805;BME280;15183;51.350;11.102;2023-07-13T13:36:49;99995.47;;;32.86;24.33
27805;BME280;15183;51.350;11.102;2023-07-13T13:41:49;100013.59;;;32.91;23.59
27805;BME280;15183;51.350;11.102;2023-07-13T13:44:17;100020.47;;;32.77;23.19
27805;BME280;15183;51.350;11.102;2023-07-13T13:46:47;99997.03;;;32.53;23.35
27805;BME280;15183;51.350;11.102;2023-07-13T13:49:19;100013.00;;;32.47;23.64
27805;BME280;15183;51.350;11.102;2023-07-13T13:51:47;100014.16;;;32.43;23.44